createdAt,value
2019-04-23T00:00:04.916Z,23.90
2019-04-23T00:02:24.789Z,18.13
2019-04-23T00:04:49.747Z,15.77
2019-04-23T00:07:39.668Z,16.63
2019-04-23T00:09:57.438Z,17.97
2019-04-23T00:12:38.956Z,16.47
2019-04-23T00:15:04.394Z,16.50
2019-04-23T00:17:40.270Z,17.23
2019-04-23T00:20:03.832Z,16.53
2019-04-23T00:23:08.805Z,16.97
2019-04-23T00:25:56.180Z,17.93
2019-04-23T00:30:56.752Z,14.83
2019-04-23T00:33:25.319Z,17.07
2019-04-23T00:36:10.360Z,18.10
2019-04-23T00:40:59.520Z,16.90
2019-04-23T00:43:27.094Z,16.67
2019-04-23T00:45:55.026Z,17.87
2019-04-23T00:53:30.289Z,16.70
2019-04-23T00:56:20.626Z,16.70
2019-04-23T00:58:38.062Z,16.17
2019-04-23T01:01:02.487Z,16.63
2019-04-23T01:03:37.529Z,16.77
2019-04-23T01:06:17.721Z,15.33
2019-04-23T01:08:39.094Z,17.03
2019-04-23T01:11:16.740Z,16.03
2019-04-23T01:13:49.598Z,17.20
2019-04-23T01:16:19.589Z,16.70
2019-04-23T01:21:11.722Z,17.33
2019-04-23T01:23:58.796Z,18.27
2019-04-23T01:26:50.350Z,16.97
2019-04-23T01:29:21.356Z,15.87
2019-04-23T01:31:52.042Z,17.27
2019-04-23T01:34:26.029Z,16.77
2019-04-23T01:36:52.297Z,16.77
2019-04-23T01:39:25.794Z,17.17
2019-04-23T01:41:55.597Z,17.23
2019-04-23T01:44:31.364Z,18.70
2019-04-23T01:46:59.454Z,18.83
2019-04-23T01:49:37.011Z,18.23
2019-04-23T01:52:01.769Z,17.70
2019-04-23T01:54:30.534Z,17.67
2019-04-23T01:57:04.026Z,16.53
2019-04-23T01:59:31.672Z,18.17
2019-04-23T02:02:22.135Z,17.17
2019-04-23T02:04:41.113Z,18.70
2019-04-23T02:07:06.382Z,17.50
2019-04-23T02:12:04.475Z,18.27
2019-04-23T02:14:36.483Z,20.70
2019-04-23T02:17:10.531Z,18.80
2019-04-23T02:22:25.228Z,20.23
2019-04-23T02:24:55.899Z,18.83
2019-04-23T02:27:22.480Z,18.57
2019-04-23T02:32:28.935Z,19.10
2019-04-23T02:35:16.932Z,20.00
2019-04-23T02:37:51.553Z,20.73
2019-04-23T02:40:07.484Z,19.43
2019-04-23T02:45:04.729Z,19.47
2019-04-23T02:47:34.976Z,19.30
2019-04-23T02:52:37.088Z,19.43
2019-04-23T02:55:13.310Z,20.47
2019-04-23T02:57:35.584Z,19.37
2019-04-23T03:02:45.203Z,19.00
2019-04-23T03:07:45.412Z,18.13
2019-04-23T03:10:15.987Z,17.57
2019-04-23T03:15:39.753Z,20.50
2019-04-23T03:18:21.025Z,19.00
2019-04-23T03:21:00.422Z,19.23
2019-04-23T03:26:08.656Z,19.87
2019-04-23T03:36:10.889Z,18.60
2019-04-23T03:43:39.143Z,22.87
2019-04-23T03:46:15.679Z,20.37
2019-04-23T03:48:41.629Z,20.90
2019-04-23T03:51:03.154Z,20.80
2019-04-23T03:53:52.797Z,21.17
2019-04-23T03:56:24.159Z,21.20
2019-04-23T04:01:11.863Z,21.10
2019-04-23T04:06:40.706Z,21.20
2019-04-23T04:08:56.256Z,21.83
2019-04-23T04:11:18.234Z,21.90
2019-04-23T04:19:06.529Z,22.57
2019-04-23T04:21:27.615Z,22.53
2019-04-23T04:23:52.819Z,23.37
2019-04-23T04:26:22.854Z,22.53
2019-04-23T04:28:51.046Z,22.63
2019-04-23T04:31:26.188Z,22.77
2019-04-23T04:36:38.671Z,22.40
2019-04-23T04:38:54.483Z,22.43
2019-04-23T04:44:17.577Z,22.33
2019-04-23T04:49:05.535Z,21.57
2019-04-23T04:51:37.919Z,22.50
2019-04-23T04:56:39.616Z,20.60
2019-04-23T05:01:28.471Z,23.10
2019-04-23T05:03:59.947Z,23.23
2019-04-23T05:06:46.463Z,22.20
2019-04-23T05:14:25.218Z,20.60
2019-04-23T05:16:35.677Z,22.63
2019-04-23T05:19:27.032Z,19.87
2019-04-23T05:24:14.853Z,21.30
2019-04-23T05:26:33.459Z,20.87
2019-04-23T05:31:42.143Z,20.60
2019-04-23T05:36:51.937Z,20.70
2019-04-23T05:39:26.865Z,20.37
2019-04-23T05:41:52.557Z,20.60
2019-04-23T05:44:35.034Z,20.97
2019-04-23T05:47:11.512Z,19.93
2019-04-23T05:49:22.750Z,20.83
2019-04-23T05:54:29.936Z,19.93
2019-04-23T05:56:51.709Z,18.47
2019-04-23T05:59:26.242Z,22.03
2019-04-23T06:07:15.164Z,18.87
2019-04-23T06:09:26.620Z,21.50
2019-04-23T06:14:32.776Z,21.37
2019-04-23T06:17:03.260Z,20.40
2019-04-23T06:22:06.034Z,20.20
2019-04-23T06:27:08.491Z,19.73
2019-04-23T06:32:02.236Z,19.80
2019-04-23T06:37:06.751Z,18.70
2019-04-23T06:42:08.045Z,18.53
2019-04-23T06:44:51.707Z,19.17
2019-04-23T06:47:20.088Z,18.60
2019-04-23T06:55:08.589Z,16.07
2019-04-23T06:57:23.835Z,17.60
2019-04-23T06:59:54.665Z,17.30
2019-04-23T07:02:27.199Z,19.27
2019-04-23T07:05:04.111Z,19.10
2019-04-23T07:07:42.621Z,18.67
2019-04-23T07:09:58.342Z,17.47
2019-04-23T07:12:33.292Z,18.53
2019-04-23T07:15:13.300Z,16.73
2019-04-23T07:17:30.882Z,18.67
2019-04-23T07:20:03.784Z,18.70
2019-04-23T07:22:28.492Z,17.60
2019-04-23T07:25:17.526Z,17.80
2019-04-23T07:30:11.637Z,18.20
2019-04-23T07:32:38.974Z,19.50
2019-04-23T07:35:15.847Z,22.23
2019-04-23T07:37:46.119Z,21.20
2019-04-23T07:43:32.315Z,19.23
2019-04-23T07:48:28.878Z,20.70
2019-04-23T07:51:06.404Z,20.20
2019-04-23T07:53:44.315Z,18.30
2019-04-23T07:58:33.200Z,19.07
2019-04-23T08:01:09.663Z,19.30
2019-04-23T08:03:45.167Z,19.23
2019-04-23T08:06:15.259Z,19.93
2019-04-23T08:08:41.753Z,22.70
2019-04-23T08:16:28.225Z,21.83
2019-04-23T08:21:52.510Z,25.23
2019-04-23T08:24:45.361Z,26.03
2019-04-23T08:27:28.208Z,19.10
2019-04-23T08:30:00.287Z,19.03
2019-04-23T08:32:29.254Z,17.40
2019-04-23T08:37:49.397Z,15.37
2019-04-23T08:40:06.493Z,18.50
2019-04-23T08:42:49.641Z,15.57
2019-04-23T08:50:57.862Z,18.93
2019-04-23T08:55:49.462Z,16.10
2019-04-23T08:58:19.134Z,19.63
2019-04-23T09:03:24.815Z,16.80
2019-04-23T09:08:27.829Z,14.47
2019-04-23T09:13:52.478Z,19.80
2019-04-23T09:15:58.332Z,16.07
2019-04-23T09:20:57.211Z,14.50
2019-04-23T09:23:36.376Z,16.80
2019-04-23T09:26:00.849Z,16.80
2019-04-23T09:28:43.382Z,16.90
2019-04-23T09:31:18.874Z,16.77
2019-04-23T09:33:54.808Z,14.47
2019-04-23T09:36:41.941Z,14.90
2019-04-23T09:41:54.689Z,15.70
2019-04-23T09:44:56.258Z,14.83
2019-04-23T09:47:45.899Z,18.60
2019-04-23T09:50:11.065Z,14.80
2019-04-23T09:52:46.124Z,15.10
2019-04-23T09:55:24.021Z,16.93
2019-04-23T09:57:46.489Z,16.40
2019-04-23T10:00:18.770Z,15.07
2019-04-23T10:02:34.318Z,17.27
2019-04-23T10:05:01.397Z,14.60
2019-04-23T10:07:30.041Z,18.27
2019-04-23T10:09:49.699Z,14.70
2019-04-23T10:12:20.079Z,15.03
2019-04-23T10:14:59.012Z,15.80
2019-04-23T10:17:20.198Z,14.80
2019-04-23T10:19:50.849Z,15.70
2019-04-23T10:22:19.989Z,14.97
2019-04-23T10:24:49.021Z,17.23
2019-04-23T10:27:18.842Z,18.43
2019-04-23T10:29:49.847Z,14.10
2019-04-23T10:32:19.856Z,16.60
2019-04-23T10:35:00.772Z,17.63
2019-04-23T10:37:31.919Z,19.77
2019-04-23T10:39:56.603Z,15.03
2019-04-23T10:42:21.899Z,15.63
2019-04-23T10:45:36.995Z,15.40
2019-04-23T10:48:38.582Z,14.67
2019-04-23T10:53:46.785Z,17.37
2019-04-23T10:56:30.980Z,15.20
2019-04-23T10:58:45.904Z,15.50
2019-04-23T11:01:22.919Z,17.23
2019-04-23T11:04:12.478Z,17.70
2019-04-23T11:09:04.986Z,18.03
2019-04-23T11:11:27.514Z,15.33
2019-04-23T11:14:07.090Z,17.93
2019-04-23T11:19:10.730Z,15.13
2019-04-23T11:21:34.217Z,16.90
2019-04-23T11:24:11.843Z,16.13
2019-04-23T11:26:38.815Z,15.17
2019-04-23T11:29:15.063Z,15.23
2019-04-23T11:34:26.636Z,20.07
2019-04-23T11:38:01.635Z,16.90
2019-04-23T11:39:05.573Z,15.90
2019-04-23T11:41:51.258Z,15.00
2019-04-23T11:49:26.330Z,13.80
2019-04-23T11:51:54.706Z,17.80
2019-04-23T11:54:17.728Z,13.87
2019-04-23T11:59:29.194Z,16.63
2019-04-23T12:02:07.320Z,14.57
2019-04-23T12:05:00.895Z,15.87
2019-04-23T12:07:29.714Z,18.03
2019-04-23T12:10:29.108Z,14.13
2019-04-23T12:12:47.801Z,14.10
2019-04-23T12:18:05.499Z,14.93
2019-04-23T12:20:26.733Z,12.50
2019-04-23T12:23:08.946Z,14.00
2019-04-23T12:27:51.217Z,15.17
2019-04-23T12:30:35.907Z,17.83
2019-04-23T12:34:36.072Z,25.37
2019-04-23T12:36:52.122Z,16.47
2019-04-23T12:39:41.999Z,13.30
2019-04-23T12:42:03.445Z,13.10
2019-04-23T12:44:38.998Z,19.17
2019-04-23T12:47:17.123Z,16.50
2019-04-23T12:49:52.842Z,13.90
2019-04-23T12:52:11.411Z,13.00
2019-04-23T12:54:52.081Z,15.57
2019-04-23T12:57:14.848Z,17.30
2019-04-23T12:59:44.714Z,14.27
2019-04-23T13:02:16.096Z,14.13
2019-04-23T13:07:17.236Z,15.20
2019-04-23T13:09:54.071Z,13.73
2019-04-23T13:12:32.639Z,11.27
2019-04-23T13:14:55.530Z,33.10
2019-04-23T13:17:32.972Z,23.07
2019-04-23T13:22:23.933Z,14.97
2019-04-23T13:25:23.846Z,25.63
2019-04-23T13:27:57.181Z,21.83
2019-04-23T13:30:27.933Z,15.07
2019-04-23T13:32:55.567Z,18.80
2019-04-23T13:35:38.346Z,16.57
2019-04-23T13:43:13.956Z,14.20
2019-04-23T13:48:03.198Z,16.80
2019-04-23T13:50:37.492Z,18.87
2019-04-23T13:55:24.745Z,27.80
2019-04-23T14:05:51.212Z,32.10
2019-04-23T14:08:22.916Z,25.87
2019-04-23T14:10:44.850Z,24.13
2019-04-23T14:20:53.243Z,13.30
2019-04-23T14:26:13.500Z,16.33
2019-04-23T14:31:00.688Z,14.70
2019-04-23T14:33:38.313Z,16.60
2019-04-23T14:36:01.148Z,20.23
2019-04-23T14:41:09.617Z,15.33
2019-04-23T14:48:56.797Z,23.93
2019-04-23T14:54:03.011Z,15.50
2019-04-23T14:56:17.024Z,14.43
2019-04-23T14:58:55.559Z,19.83
2019-04-23T15:03:47.068Z,14.27
2019-04-23T15:06:36.377Z,20.37
2019-04-23T15:11:38.324Z,19.43
2019-04-23T15:13:49.394Z,22.87
2019-04-23T15:16:26.656Z,24.37
2019-04-23T15:19:23.840Z,25.50
2019-04-23T15:22:04.897Z,20.80
2019-04-23T15:24:25.238Z,23.40
2019-04-23T15:28:58.645Z,18.50
2019-04-23T15:31:52.448Z,22.43
2019-04-23T15:37:14.017Z,16.70
2019-04-23T15:47:04.568Z,20.77
2019-04-23T15:49:30.462Z,31.10
2019-04-23T15:54:37.165Z,19.53
2019-04-23T15:57:05.576Z,21.67
2019-04-23T16:01:42.650Z,17.53
2019-04-23T16:04:08.257Z,26.10
2019-04-23T16:06:38.814Z,19.63
2019-04-23T16:09:26.165Z,22.27
2019-04-23T16:11:59.146Z,21.20
2019-04-23T16:14:48.963Z,24.00
2019-04-23T16:17:24.040Z,21.20
2019-04-23T16:20:06.166Z,29.73
2019-04-23T16:22:25.054Z,23.60
2019-04-23T16:25:00.994Z,17.43
2019-04-23T16:27:19.623Z,23.60
2019-04-23T16:30:09.750Z,23.87
2019-04-23T16:33:06.903Z,22.00
2019-04-23T16:35:34.650Z,29.63
2019-04-23T16:38:18.102Z,29.57
2019-04-23T16:40:42.616Z,40.57
2019-04-23T16:43:08.896Z,29.17
2019-04-23T16:45:31.348Z,29.07
2019-04-23T16:48:17.160Z,25.93
2019-04-23T16:50:58.091Z,21.83
2019-04-23T16:53:16.402Z,38.07
2019-04-23T16:55:50.305Z,27.10
2019-04-23T16:58:21.872Z,25.70
2019-04-23T17:00:51.519Z,24.77
2019-04-23T17:03:19.390Z,40.60
2019-04-23T17:08:40.467Z,29.87
2019-04-23T17:13:13.706Z,25.70
2019-04-23T17:15:53.507Z,29.13
2019-04-23T17:18:17.255Z,24.10
2019-04-23T17:23:31.224Z,45.80
2019-04-23T17:25:51.865Z,24.43
2019-04-23T17:28:23.310Z,27.30
2019-04-23T17:31:15.444Z,38.20
2019-04-23T17:33:39.498Z,38.67
2019-04-23T17:36:18.521Z,28.40
2019-04-23T17:41:31.298Z,34.87
2019-04-23T17:44:10.704Z,43.90
2019-04-23T17:46:27.318Z,32.53
2019-04-23T17:49:04.342Z,35.73
2019-04-23T17:51:26.340Z,38.40
2019-04-23T17:59:04.126Z,45.03
2019-04-23T18:01:35.784Z,37.87
2019-04-23T18:04:15.230Z,34.67
2019-04-23T18:06:41.303Z,30.10
2019-04-23T18:09:14.302Z,31.83
2019-04-23T18:11:35.666Z,35.60
2019-04-23T18:14:07.146Z,29.53
2019-04-23T18:16:49.258Z,31.57
2019-04-23T18:19:12.362Z,37.07
2019-04-23T18:22:09.407Z,33.87
2019-04-23T18:25:00.821Z,40.10
2019-04-23T18:30:15.614Z,30.87
2019-04-23T18:35:29.954Z,30.63
2019-04-23T18:38:04.900Z,33.40
2019-04-23T18:40:38.819Z,34.63
2019-04-23T18:45:41.582Z,62.97
2019-04-23T18:48:40.634Z,43.97
2019-04-23T18:53:33.778Z,37.23
2019-04-23T18:58:34.499Z,32.47
2019-04-23T19:01:05.260Z,33.43
2019-04-23T19:03:48.106Z,28.73
2019-04-23T19:06:39.728Z,33.80
2019-04-23T19:10:19.019Z,34.17
2019-04-23T19:15:09.431Z,40.67
2019-04-23T19:17:48.606Z,31.23
2019-04-23T19:20:01.162Z,30.50
2019-04-23T19:22:44.486Z,28.03
2019-04-23T19:25:11.001Z,45.03
2019-04-23T19:30:14.009Z,40.63
2019-04-23T19:32:47.917Z,36.63
2019-04-23T19:35:31.523Z,33.13
2019-04-23T19:37:49.556Z,40.60
2019-04-23T19:40:10.022Z,29.33
2019-04-23T19:42:52.268Z,30.27
2019-04-23T19:45:17.200Z,32.57
2019-04-23T19:47:55.946Z,34.20
2019-04-23T19:50:26.249Z,23.97
2019-04-23T19:53:03.544Z,30.47
2019-04-23T19:55:17.317Z,31.37
2019-04-23T19:57:50.477Z,35.67
2019-04-23T20:00:17.464Z,32.47
2019-04-23T20:05:23.511Z,25.60
2019-04-23T20:08:02.237Z,34.40
2019-04-23T20:10:24.195Z,37.53
2019-04-23T20:12:44.856Z,22.80
2019-04-23T20:15:35.938Z,30.77
2019-04-23T20:20:25.538Z,21.70
2019-04-23T20:22:55.644Z,19.97
2019-04-23T20:25:52.456Z,42.40
2019-04-23T20:36:21.692Z,24.90
2019-04-23T20:41:36.153Z,29.83
2019-04-23T20:43:55.571Z,29.57
2019-04-23T20:46:29.003Z,27.97
2019-04-23T20:48:56.932Z,20.40
2019-04-23T20:51:35.010Z,18.60
2019-04-23T20:59:00.193Z,24.43
2019-04-23T21:01:55.657Z,23.27
2019-04-23T21:04:35.374Z,18.00
2019-04-23T21:07:03.118Z,18.50
2019-04-23T21:09:37.988Z,20.23
2019-04-23T21:12:04.194Z,20.43
2019-04-23T21:14:48.505Z,21.40
2019-04-23T21:16:58.373Z,25.17
2019-04-23T21:19:39.500Z,18.30
2019-04-23T21:22:09.935Z,21.30
2019-04-23T21:24:43.368Z,24.30
2019-04-23T21:27:41.031Z,19.60
2019-04-23T21:32:52.575Z,17.00
2019-04-23T21:35:07.650Z,24.13
2019-04-23T21:40:59.172Z,18.37
2019-04-23T21:43:47.377Z,21.73
2019-04-23T21:46:28.209Z,22.63
2019-04-23T21:48:53.197Z,19.90
2019-04-23T21:51:09.596Z,17.43
2019-04-23T21:53:42.173Z,22.93
2019-04-23T21:56:10.926Z,15.70
2019-04-23T21:58:57.383Z,18.20
2019-04-23T22:01:24.456Z,16.57
2019-04-23T22:04:06.791Z,17.27
2019-04-23T22:06:22.472Z,17.20
2019-04-23T22:08:56.334Z,22.03
2019-04-23T22:11:43.945Z,19.47
2019-04-23T22:16:27.781Z,24.23
2019-04-23T22:19:07.222Z,21.23
2019-04-23T22:26:28.464Z,30.00
2019-04-23T22:29:06.624Z,19.10
2019-04-23T22:31:37.773Z,25.60
2019-04-23T22:36:29.280Z,18.63
2019-04-23T22:41:38.075Z,20.00
2019-04-23T22:44:05.304Z,21.00
2019-04-23T22:49:29.234Z,20.80
2019-04-23T22:51:55.326Z,18.93
2019-04-23T22:54:13.900Z,25.63
2019-04-23T22:56:51.363Z,23.23
2019-04-23T22:59:33.676Z,21.60
2019-04-23T23:01:54.748Z,24.23
2019-04-23T23:04:40.804Z,21.10
2019-04-23T23:11:54.258Z,21.30
2019-04-23T23:14:24.332Z,18.73
2019-04-23T23:19:30.188Z,24.37
2019-04-23T23:29:28.228Z,22.37
2019-04-23T23:32:00.753Z,20.83
2019-04-23T23:34:36.883Z,23.10
2019-04-23T23:39:37.156Z,29.73
2019-04-23T23:42:07.413Z,25.13
2019-04-23T23:47:10.568Z,23.03
2019-04-23T23:49:36.163Z,28.60
2019-04-23T23:52:27.934Z,25.20
2019-04-23T23:54:39.341Z,22.83
2019-04-23T23:57:12.178Z,26.40
